sensor_id;sensor_type;location;lat;lon;timestamp;temperature;humidity
66257;DHT22;53049;43.446;3.698;2022-10-16T00:01:13;20.10;99.90
66257;DHT22;53049;43.446;3.698;2022-10-16T00:03:41;20.10;99.90
66257;DHT22;53049;43.446;3.698;2022-10-16T00:06:07;20.10;99.90
66257;DHT22;53049;43.446;3.698;2022-10-16T00:08:33;20.10;99.90
66257;DHT22;53049;43.446;3.698;2022-10-16T00:11:04;20.20;99.90
66257;DHT22;53049;43.446;3.698;2022-10-16T00:13:32;20.20;99.90
66257;DHT22;53049;43.446;3.698;2022-10-16T00:15:58;20.20;99.90
66257;DHT22;53049;43.446;3.698;2022-10-16T00:18:25;20.20;99.90
66257;DHT22;53049;43.446;3.698;2022-10-16T00:20:51;20.20;99.90
66257;DHT22;53049;43.446;3.698;2022-10-16T00:23:17;20.20;99.90
66257;DHT22;53049;43.446;3.698;2022-10-16T00:25:43;20.10;99.90
66257;DHT22;53049;43.446;3.698;2022-10-16T00:28:09;20.10;99.90
66257;DHT22;53049;43.446;3.698;2022-10-16T00:30:38;20.20;99.90
66257;DHT22;53049;43.446;3.698;2022-10-16T00:33:03;20.20;99.90
66257;DHT22;53049;43.446;3.698;2022-10-16T00:35:30;20.20;99.90
66257;DHT22;53049;43.446;3.698;2022-10-16T00:37:56;20.20;99.90
66257;DHT22;53049;43.446;3.698;2022-10-16T00:40:21;20.20;99.90
66257;DHT22;53049;43.446;3.698;2022-10-16T00:42:47;20.20;99.90
66257;DHT22;53049;43.446;3.698;2022-10-16T00:45:13;20.20;99.90
66257;DHT22;53049;43.446;3.698;2022-10-16T00:47:46;20.20;99.90
66257;DHT22;53049;43.446;3.698;2022-10-16T00:50:33;20.20;99.90
66257;DHT22;53049;43.446;3.698;2022-10-16T00:53:01;20.20;99.90
66257;DHT22;53049;43.446;3.698;2022-10-16T00:55:27;20.20;99.90
66257;DHT22;53049;43.446;3.698;2022-10-16T00:57:56;20.20;99.90
66257;DHT22;53049;43.446;3.698;2022-10-16T01:00:24;20.20;99.90
66257;DHT22;53049;43.446;3.698;2022-10-16T01:02:55;20.20;99.90
66257;DHT22;53049;43.446;3.698;2022-10-16T01:05:31;20.20;99.90
66257;DHT22;53049;43.446;3.698;2022-10-16T01:08:25;20.20;99.90
66257;DHT22;53049;43.446;3.698;2022-10-16T01:10:59;20.20;99.90
66257;DHT22;53049;43.446;3.698;2022-10-16T01:16:00;20.20;99.90
66257;DHT22;53049;43.446;3.698;2022-10-16T01:18:57;20.20;99.90
66257;DHT22;53049;43.446;3.698;2022-10-16T01:21:31;20.20;99.90
66257;DHT22;53049;43.446;3.698;2022-10-16T01:31:36;20.20;99.90
66257;DHT22;53049;43.446;3.698;2022-10-16T01:34:09;20.20;99.90
66257;DHT22;53049;43.446;3.698;2022-10-16T01:36:38;20.20;99.90
66257;DHT22;53049;43.446;3.698;2022-10-16T01:39:06;20.20;99.90
66257;DHT22;53049;43.446;3.698;2022-10-16T01:41:38;20.20;99.90
66257;DHT22;53049;43.446;3.698;2022-10-16T01:44:28;20.20;99.90
66257;DHT22;53049;43.446;3.698;2022-10-16T01:46:52;20.20;99.90
66257;DHT22;53049;43.446;3.698;2022-10-16T01:49:21;20.20;99.90
66257;DHT22;53049;43.446;3.698;2022-10-16T01:51:52;20.20;99.90
66257;DHT22;53049;43.446;3.698;2022-10-16T01:54:20;20.20;99.90
66257;DHT22;53049;43.446;3.698;2022-10-16T01:56:47;20.20;99.90
66257;DHT22;53049;43.446;3.698;2022-10-16T01:59:16;20.20;99.90
66257;DHT22;53049;43.446;3.698;2022-10-16T02:01:50;20.20;99.90
66257;DHT22;53049;43.446;3.698;2022-10-16T02:04:28;20.20;99.90
66257;DHT22;53049;43.446;3.698;2022-10-16T02:06:55;20.20;99.90
66257;DHT22;53049;43.446;3.698;2022-10-16T02:09:21;20.20;99.90
66257;DHT22;53049;43.446;3.698;2022-10-16T02:11:47;20.20;99.90
66257;DHT22;53049;43.446;3.698;2022-10-16T02:14:14;20.20;99.90
66257;DHT22;53049;43.446;3.698;2022-10-16T02:16:43;20.20;99.90
66257;DHT22;53049;43.446;3.698;2022-10-16T02:19:09;20.20;99.90
66257;DHT22;53049;43.446;3.698;2022-10-16T02:26:52;20.20;99.90
66257;DHT22;53049;43.446;3.698;2022-10-16T02:29:22;20.20;99.90
66257;DHT22;53049;43.446;3.698;2022-10-16T02:31:52;20.20;99.90
66257;DHT22;53049;43.446;3.698;2022-10-16T02:34:21;20.20;99.90
66257;DHT22;53049;43.446;3.698;2022-10-16T02:36:47;20.20;99.90
66257;DHT22;53049;43.446;3.698;2022-10-16T02:39:14;20.20;99.90
66257;DHT22;53049;43.446;3.698;2022-10-16T02:41:40;20.20;99.90
66257;DHT22;53049;43.446;3.698;2022-10-16T02:44:06;20.20;99.90
66257;DHT22;53049;43.446;3.698;2022-10-16T02:46:32;20.20;99.90
66257;DHT22;53049;43.446;3.698;2022-10-16T02:48:57;20.20;99.90
66257;DHT22;53049;43.446;3.698;2022-10-16T02:51:23;20.10;99.90
66257;DHT22;53049;43.446;3.698;2022-10-16T02:53:49;20.20;99.90
66257;DHT22;53049;43.446;3.698;2022-10-16T02:56:14;20.20;99.90
66257;DHT22;53049;43.446;3.698;2022-10-16T02:58:40;20.20;99.90
66257;DHT22;53049;43.446;3.698;2022-10-16T03:01:05;20.20;99.90
66257;DHT22;53049;43.446;3.698;2022-10-16T03:03:31;20.20;99.90
66257;DHT22;53049;43.446;3.698;2022-10-16T03:05:57;20.20;99.90
66257;DHT22;53049;43.446;3.698;2022-10-16T03:08:22;20.20;99.90
66257;DHT22;53049;43.446;3.698;2022-10-16T03:10:51;20.20;99.90
66257;DHT22;53049;43.446;3.698;2022-10-16T03:13:17;20.20;99.90
66257;DHT22;53049;43.446;3.698;2022-10-16T03:15:45;20.20;99.90
66257;DHT22;53049;43.446;3.698;2022-10-16T03:18:11;20.10;99.90
66257;DHT22;53049;43.446;3.698;2022-10-16T03:20:37;20.20;99.90
66257;DHT22;53049;43.446;3.698;2022-10-16T03:23:03;20.20;99.90
66257;DHT22;53049;43.446;3.698;2022-10-16T03:25:29;20.20;99.90
66257;DHT22;53049;43.446;3.698;2022-10-16T03:27:54;20.20;99.90
66257;DHT22;53049;43.446;3.698;2022-10-16T03:30:20;20.10;99.90
66257;DHT22;53049;43.446;3.698;2022-10-16T03:32:46;20.20;99.90
66257;DHT22;53049;43.446;3.698;2022-10-16T03:35:12;20.20;99.90
66257;DHT22;53049;43.446;3.698;2022-10-16T03:37:38;20.20;99.90
66257;DHT22;53049;43.446;3.698;2022-10-16T03:40:04;20.10;99.90
66257;DHT22;53049;43.446;3.698;2022-10-16T03:42:30;20.10;99.90
66257;DHT22;53049;43.446;3.698;2022-10-16T03:44:56;20.10;99.90
66257;DHT22;53049;43.446;3.698;2022-10-16T03:47:21;20.10;99.90
66257;DHT22;53049;43.446;3.698;2022-10-16T03:49:49;20.10;99.90
66257;DHT22;53049;43.446;3.698;2022-10-16T03:52:15;20.10;99.90
66257;DHT22;53049;43.446;3.698;2022-10-16T03:54:40;20.10;99.90
66257;DHT22;53049;43.446;3.698;2022-10-16T03:57:06;20.10;99.90
66257;DHT22;53049;43.446;3.698;2022-10-16T03:59:32;20.20;99.90
66257;DHT22;53049;43.446;3.698;2022-10-16T04:01:57;20.10;99.90
66257;DHT22;53049;43.446;3.698;2022-10-16T04:04:23;20.10;99.90
66257;DHT22;53049;43.446;3.698;2022-10-16T04:06:50;20.20;99.90
66257;DHT22;53049;43.446;3.698;2022-10-16T04:09:16;20.10;99.90
66257;DHT22;53049;43.446;3.698;2022-10-16T04:11:42;20.20;99.90
66257;DHT22;53049;43.446;3.698;2022-10-16T04:14:07;20.20;99.90
66257;DHT22;53049;43.446;3.698;2022-10-16T04:16:33;20.20;99.90
66257;DHT22;53049;43.446;3.698;2022-10-16T04:18:58;20.10;99.90
66257;DHT22;53049;43.446;3.698;2022-10-16T04:21:24;20.10;99.90
66257;DHT22;53049;43.446;3.698;2022-10-16T04:23:50;20.10;99.90
66257;DHT22;53049;43.446;3.698;2022-10-16T04:26:15;20.10;99.90
66257;DHT22;53049;43.446;3.698;2022-10-16T04:28:41;20.10;99.90
66257;DHT22;53049;43.446;3.698;2022-10-16T04:31:07;20.10;99.90
66257;DHT22;53049;43.446;3.698;2022-10-16T04:33:33;20.10;99.90
66257;DHT22;53049;43.446;3.698;2022-10-16T04:36:00;20.20;99.90
66257;DHT22;53049;43.446;3.698;2022-10-16T04:38:26;20.20;99.90
66257;DHT22;53049;43.446;3.698;2022-10-16T04:40:52;20.20;99.90
66257;DHT22;53049;43.446;3.698;2022-10-16T04:43:18;20.10;99.90
66257;DHT22;53049;43.446;3.698;2022-10-16T04:45:44;20.20;99.90
66257;DHT22;53049;43.446;3.698;2022-10-16T04:48:10;20.20;99.90
66257;DHT22;53049;43.446;3.698;2022-10-16T04:50:36;20.20;99.90
66257;DHT22;53049;43.446;3.698;2022-10-16T04:53:01;20.20;99.90
66257;DHT22;53049;43.446;3.698;2022-10-16T04:55:27;20.20;99.90
66257;DHT22;53049;43.446;3.698;2022-10-16T04:57:53;20.20;99.90
66257;DHT22;53049;43.446;3.698;2022-10-16T05:00:19;20.20;99.90
66257;DHT22;53049;43.446;3.698;2022-10-16T05:02:45;20.20;99.90
66257;DHT22;53049;43.446;3.698;2022-10-16T05:05:10;20.20;99.90
66257;DHT22;53049;43.446;3.698;2022-10-16T05:07:37;20.20;99.90
66257;DHT22;53049;43.446;3.698;2022-10-16T05:10:03;20.20;99.90
66257;DHT22;53049;43.446;3.698;2022-10-16T05:12:28;20.20;99.90
66257;DHT22;53049;43.446;3.698;2022-10-16T05:14:54;20.20;99.90
66257;DHT22;53049;43.446;3.698;2022-10-16T05:17:24;20.20;99.90
66257;DHT22;53049;43.446;3.698;2022-10-16T05:19:50;20.20;99.90
66257;DHT22;53049;43.446;3.698;2022-10-16T05:22:16;20.20;99.90
66257;DHT22;53049;43.446;3.698;2022-10-16T05:24:42;20.20;99.90
66257;DHT22;53049;43.446;3.698;2022-10-16T05:27:07;20.20;99.90
66257;DHT22;53049;43.446;3.698;2022-10-16T05:29:33;20.20;99.90
66257;DHT22;53049;43.446;3.698;2022-10-16T05:31:59;20.20;99.90
66257;DHT22;53049;43.446;3.698;2022-10-16T05:34:24;20.20;99.90
66257;DHT22;53049;43.446;3.698;2022-10-16T05:36:50;20.20;99.90
66257;DHT22;53049;43.446;3.698;2022-10-16T05:39:16;20.10;99.90
66257;DHT22;53049;43.446;3.698;2022-10-16T05:41:42;20.10;99.90
66257;DHT22;53049;43.446;3.698;2022-10-16T05:44:08;20.10;99.90
66257;DHT22;53049;43.446;3.698;2022-10-16T05:46:34;20.10;99.90
66257;DHT22;53049;43.446;3.698;2022-10-16T05:49:00;20.10;99.90
66257;DHT22;53049;43.446;3.698;2022-10-16T05:51:25;20.00;99.90
66257;DHT22;53049;43.446;3.698;2022-10-16T05:53:52;20.10;99.90
66257;DHT22;53049;43.446;3.698;2022-10-16T05:56:17;20.10;99.90
66257;DHT22;53049;43.446;3.698;2022-10-16T05:58:43;20.10;99.90
66257;DHT22;53049;43.446;3.698;2022-10-16T06:01:15;20.10;99.90
66257;DHT22;53049;43.446;3.698;2022-10-16T06:03:41;20.20;99.90
66257;DHT22;53049;43.446;3.698;2022-10-16T06:06:21;20.10;99.90
66257;DHT22;53049;43.446;3.698;2022-10-16T06:08:48;20.10;99.90
66257;DHT22;53049;43.446;3.698;2022-10-16T06:11:19;20.20;99.90
66257;DHT22;53049;43.446;3.698;2022-10-16T06:13:48;20.20;99.90
66257;DHT22;53049;43.446;3.698;2022-10-16T06:16:14;20.20;99.90
66257;DHT22;53049;43.446;3.698;2022-10-16T06:18:40;20.20;99.90
66257;DHT22;53049;43.446;3.698;2022-10-16T06:21:16;20.10;99.90
66257;DHT22;53049;43.446;3.698;2022-10-16T06:23:42;20.10;99.90
66257;DHT22;53049;43.446;3.698;2022-10-16T06:26:09;20.20;99.90
66257;DHT22;53049;43.446;3.698;2022-10-16T06:28:35;20.20;99.90
66257;DHT22;53049;43.446;3.698;2022-10-16T06:31:01;20.20;99.90
66257;DHT22;53049;43.446;3.698;2022-10-16T06:33:28;20.20;99.90
66257;DHT22;53049;43.446;3.698;2022-10-16T06:35:53;20.20;99.90
66257;DHT22;53049;43.446;3.698;2022-10-16T06:38:19;20.20;99.90
66257;DHT22;53049;43.446;3.698;2022-10-16T06:40:44;20.20;99.90
66257;DHT22;53049;43.446;3.698;2022-10-16T06:43:10;20.20;99.90
66257;DHT22;53049;43.446;3.698;2022-10-16T06:45:36;20.20;99.90
66257;DHT22;53049;43.446;3.698;2022-10-16T06:48:02;20.20;99.90
66257;DHT22;53049;43.446;3.698;2022-10-16T06:50:28;20.20;99.90
66257;DHT22;53049;43.446;3.698;2022-10-16T06:52:53;20.20;99.90
66257;DHT22;53049;43.446;3.698;2022-10-16T06:55:19;20.10;99.90
66257;DHT22;53049;43.446;3.698;2022-10-16T06:57:47;20.20;99.90
66257;DHT22;53049;43.446;3.698;2022-10-16T07:00:14;20.10;99.90
66257;DHT22;53049;43.446;3.698;2022-10-16T07:02:39;20.10;99.90
66257;DHT22;53049;43.446;3.698;2022-10-16T07:05:05;20.20;99.90
66257;DHT22;53049;43.446;3.698;2022-10-16T07:07:31;20.20;99.90
66257;DHT22;53049;43.446;3.698;2022-10-16T07:09:57;20.20;99.90
66257;DHT22;53049;43.446;3.698;2022-10-16T07:12:22;20.20;99.90
66257;DHT22;53049;43.446;3.698;2022-10-16T07:14:49;20.20;99.90
66257;DHT22;53049;43.446;3.698;2022-10-16T07:17:17;20.30;99.90
66257;DHT22;53049;43.446;3.698;2022-10-16T07:19:43;20.30;99.90
66257;DHT22;53049;43.446;3.698;2022-10-16T07:22:08;20.30;99.90
66257;DHT22;53049;43.446;3.698;2022-10-16T07:24:34;20.40;99.90
66257;DHT22;53049;43.446;3.698;2022-10-16T07:27:00;20.40;99.90
66257;DHT22;53049;43.446;3.698;2022-10-16T07:29:26;20.50;99.90
66257;DHT22;53049;43.446;3.698;2022-10-16T07:31:51;20.50;99.90
66257;DHT22;53049;43.446;3.698;2022-10-16T07:34:18;20.50;99.90
66257;DHT22;53049;43.446;3.698;2022-10-16T07:36:46;20.60;99.90
66257;DHT22;53049;43.446;3.698;2022-10-16T07:39:12;20.60;99.90
66257;DHT22;53049;43.446;3.698;2022-10-16T07:41:38;20.60;99.90
66257;DHT22;53049;43.446;3.698;2022-10-16T07:44:04;20.50;99.90
66257;DHT22;53049;43.446;3.698;2022-10-16T07:46:30;20.60;99.90
66257;DHT22;53049;43.446;3.698;2022-10-16T07:48:56;20.50;99.90
66257;DHT22;53049;43.446;3.698;2022-10-16T07:51:24;20.50;99.90
66257;DHT22;53049;43.446;3.698;2022-10-16T07:53:50;20.50;99.90
66257;DHT22;53049;43.446;3.698;2022-10-16T07:56:17;20.50;99.90
66257;DHT22;53049;43.446;3.698;2022-10-16T07:58:43;20.60;99.90
66257;DHT22;53049;43.446;3.698;2022-10-16T08:01:11;20.60;99.90
66257;DHT22;53049;43.446;3.698;2022-10-16T08:03:38;20.60;99.90
66257;DHT22;53049;43.446;3.698;2022-10-16T08:06:06;20.60;99.90
66257;DHT22;53049;43.446;3.698;2022-10-16T08:08:32;20.70;99.90
66257;DHT22;53049;43.446;3.698;2022-10-16T08:10:57;20.70;99.90
66257;DHT22;53049;43.446;3.698;2022-10-16T08:13:23;20.80;99.90
66257;DHT22;53049;43.446;3.698;2022-10-16T08:15:49;20.80;99.90
66257;DHT22;53049;43.446;3.698;2022-10-16T08:18:15;20.80;99.90
66257;DHT22;53049;43.446;3.698;2022-10-16T08:20:42;20.80;99.90
66257;DHT22;53049;43.446;3.698;2022-10-16T08:23:10;20.80;99.90
66257;DHT22;53049;43.446;3.698;2022-10-16T08:25:37;20.90;99.90
66257;DHT22;53049;43.446;3.698;2022-10-16T08:28:04;20.90;99.90
66257;DHT22;53049;43.446;3.698;2022-10-16T08:30:31;20.80;99.90
66257;DHT22;53049;43.446;3.698;2022-10-16T08:33:00;20.80;99.90
66257;DHT22;53049;43.446;3.698;2022-10-16T08:35:27;20.80;99.90
66257;DHT22;53049;43.446;3.698;2022-10-16T08:37:52;20.80;99.90
66257;DHT22;53049;43.446;3.698;2022-10-16T08:40:27;20.90;99.90
66257;DHT22;53049;43.446;3.698;2022-10-16T08:45:43;20.90;99.90
66257;DHT22;53049;43.446;3.698;2022-10-16T08:48:45;21.00;99.90
66257;DHT22;53049;43.446;3.698;2022-10-16T08:51:10;21.00;99.90
66257;DHT22;53049;43.446;3.698;2022-10-16T08:53:48;21.00;99.90
66257;DHT22;53049;43.446;3.698;2022-10-16T08:56:15;21.10;99.90
66257;DHT22;53049;43.446;3.698;2022-10-16T08:58:42;21.10;99.90
66257;DHT22;53049;43.446;3.698;2022-10-16T09:01:14;21.10;99.90
66257;DHT22;53049;43.446;3.698;2022-10-16T09:04:05;21.10;99.90
66257;DHT22;53049;43.446;3.698;2022-10-16T09:19:56;21.20;99.90
66257;DHT22;53049;43.446;3.698;2022-10-16T09:22:26;21.20;99.90
66257;DHT22;53049;43.446;3.698;2022-10-16T09:24:59;21.30;99.90
66257;DHT22;53049;43.446;3.698;2022-10-16T09:27:26;21.40;99.90
66257;DHT22;53049;43.446;3.698;2022-10-16T09:29:52;21.50;99.90
66257;DHT22;53049;43.446;3.698;2022-10-16T09:32:20;21.60;99.90
66257;DHT22;53049;43.446;3.698;2022-10-16T09:34:50;21.60;99.90
66257;DHT22;53049;43.446;3.698;2022-10-16T09:37:20;21.60;99.90
66257;DHT22;53049;43.446;3.698;2022-10-16T09:39:56;21.40;99.90
66257;DHT22;53049;43.446;3.698;2022-10-16T09:42:31;21.30;99.90
66257;DHT22;53049;43.446;3.698;2022-10-16T09:44:58;21.40;99.90
66257;DHT22;53049;43.446;3.698;2022-10-16T09:47:26;21.40;99.90
66257;DHT22;53049;43.446;3.698;2022-10-16T09:50:21;21.50;99.90
66257;DHT22;53049;43.446;3.698;2022-10-16T09:52:48;21.60;99.90
66257;DHT22;53049;43.446;3.698;2022-10-16T09:55:17;21.70;99.90
66257;DHT22;53049;43.446;3.698;2022-10-16T09:57:53;21.60;99.90
66257;DHT22;53049;43.446;3.698;2022-10-16T10:00:21;21.60;99.90
66257;DHT22;53049;43.446;3.698;2022-10-16T10:02:47;21.80;99.90
66257;DHT22;53049;43.446;3.698;2022-10-16T10:05:26;21.90;99.90
66257;DHT22;53049;43.446;3.698;2022-10-16T10:07:57;21.70;99.90
66257;DHT22;53049;43.446;3.698;2022-10-16T10:10:30;21.70;99.90
66257;DHT22;53049;43.446;3.698;2022-10-16T10:12:56;21.60;99.90
66257;DHT22;53049;43.446;3.698;2022-10-16T10:15:23;21.50;99.90
66257;DHT22;53049;43.446;3.698;2022-10-16T10:17:54;21.60;99.90
66257;DHT22;53049;43.446;3.698;2022-10-16T10:20:28;21.60;99.90
66257;DHT22;53049;43.446;3.698;2022-10-16T10:22:54;21.50;99.90
66257;DHT22;53049;43.446;3.698;2022-10-16T10:31:29;21.50;99.90
66257;DHT22;53049;43.446;3.698;2022-10-16T10:36:30;21.60;99.90
66257;DHT22;53049;43.446;3.698;2022-10-16T10:39:02;21.80;99.90
66257;DHT22;53049;43.446;3.698;2022-10-16T10:44:28;21.90;99.30
66257;DHT22;53049;43.446;3.698;2022-10-16T10:46:56;22.00;99.30
66257;DHT22;53049;43.446;3.698;2022-10-16T10:55:06;22.00;98.90
66257;DHT22;53049;43.446;3.698;2022-10-16T11:00:19;22.10;98.90
66257;DHT22;53049;43.446;3.698;2022-10-16T11:03:13;22.20;98.80
66257;DHT22;53049;43.446;3.698;2022-10-16T11:05:54;22.20;98.70
66257;DHT22;53049;43.446;3.698;2022-10-16T11:08:40;22.00;98.50
66257;DHT22;53049;43.446;3.698;2022-10-16T11:11:15;21.90;98.80
66257;DHT22;53049;43.446;3.698;2022-10-16T11:14:03;21.90;98.90
66257;DHT22;53049;43.446;3.698;2022-10-16T11:16:47;22.00;99.00
66257;DHT22;53049;43.446;3.698;2022-10-16T11:19:47;22.00;98.80
66257;DHT22;53049;43.446;3.698;2022-10-16T11:22:28;22.00;98.80
66257;DHT22;53049;43.446;3.698;2022-10-16T11:27:50;21.90;98.70
66257;DHT22;53049;43.446;3.698;2022-10-16T11:30:26;21.90;98.60
66257;DHT22;53049;43.446;3.698;2022-10-16T11:35:48;22.00;98.40
66257;DHT22;53049;43.446;3.698;2022-10-16T11:41:23;22.10;98.40
66257;DHT22;53049;43.446;3.698;2022-10-16T11:46:48;22.30;97.90
66257;DHT22;53049;43.446;3.698;2022-10-16T11:49:19;22.30;97.80
66257;DHT22;53049;43.446;3.698;2022-10-16T11:54:25;22.20;97.60
66257;DHT22;53049;43.446;3.698;2022-10-16T11:56:56;22.20;97.80
66257;DHT22;53049;43.446;3.698;2022-10-16T11:59:45;22.20;97.80
66257;DHT22;53049;43.446;3.698;2022-10-16T12:08:11;22.10;97.70
66257;DHT22;53049;43.446;3.698;2022-10-16T12:10:39;22.10;97.90
66257;DHT22;53049;43.446;3.698;2022-10-16T12:13:33;22.20;97.90
66257;DHT22;53049;43.446;3.698;2022-10-16T12:18:41;22.40;97.50
66257;DHT22;53049;43.446;3.698;2022-10-16T12:21:07;22.40;97.60
66257;DHT22;53049;43.446;3.698;2022-10-16T12:23:45;22.50;97.20
66257;DHT22;53049;43.446;3.698;2022-10-16T12:26:12;22.40;97.20
66257;DHT22;53049;43.446;3.698;2022-10-16T12:28:37;22.50;97.30
66257;DHT22;53049;43.446;3.698;2022-10-16T12:31:06;22.50;97.10
66257;DHT22;53049;43.446;3.698;2022-10-16T12:33:57;22.50;97.20
66257;DHT22;53049;43.446;3.698;2022-10-16T12:36:47;22.40;97.20
66257;DHT22;53049;43.446;3.698;2022-10-16T12:39:24;22.40;97.40
66257;DHT22;53049;43.446;3.698;2022-10-16T12:42:04;22.40;97.30
66257;DHT22;53049;43.446;3.698;2022-10-16T12:44:35;22.40;97.40
66257;DHT22;53049;43.446;3.698;2022-10-16T12:47:01;22.40;97.20
66257;DHT22;53049;43.446;3.698;2022-10-16T12:51:53;22.40;97.20
66257;DHT22;53049;43.446;3.698;2022-10-16T12:54:37;22.60;97.20
66257;DHT22;53049;43.446;3.698;2022-10-16T13:11:24;22.60;97.00
66257;DHT22;53049;43.446;3.698;2022-10-16T13:16:56;22.60;96.90
66257;DHT22;53049;43.446;3.698;2022-10-16T13:25:02;22.70;96.80
66257;DHT22;53049;43.446;3.698;2022-10-16T13:30:32;22.60;97.00
66257;DHT22;53049;43.446;3.698;2022-10-16T13:35:35;22.60;97.00
66257;DHT22;53049;43.446;3.698;2022-10-16T13:38:13;22.60;97.10
66257;DHT22;53049;43.446;3.698;2022-10-16T13:40:59;22.60;97.00
66257;DHT22;53049;43.446;3.698;2022-10-16T13:43:32;22.60;96.90
66257;DHT22;53049;43.446;3.698;2022-10-16T13:46:04;22.60;97.10
66257;DHT22;53049;43.446;3.698;2022-10-16T13:48:33;22.60;97.10
66257;DHT22;53049;43.446;3.698;2022-10-16T13:51:05;22.50;96.90
66257;DHT22;53049;43.446;3.698;2022-10-16T13:53:34;22.50;97.20
66257;DHT22;53049;43.446;3.698;2022-10-16T13:56:06;22.50;97.20
66257;DHT22;53049;43.446;3.698;2022-10-16T13:58:33;22.50;97.20
66257;DHT22;53049;43.446;3.698;2022-10-16T14:01:02;22.50;97.20
66257;DHT22;53049;43.446;3.698;2022-10-16T14:03:30;22.50;97.30
66257;DHT22;53049;43.446;3.698;2022-10-16T14:06:00;22.50;97.30
66257;DHT22;53049;43.446;3.698;2022-10-16T14:08:27;22.50;97.40
66257;DHT22;53049;43.446;3.698;2022-10-16T14:11:00;22.60;97.30
66257;DHT22;53049;43.446;3.698;2022-10-16T14:13:37;22.60;97.30
66257;DHT22;53049;43.446;3.698;2022-10-16T14:16:09;22.60;97.20
66257;DHT22;53049;43.446;3.698;2022-10-16T14:18:37;22.50;97.30
66257;DHT22;53049;43.446;3.698;2022-10-16T14:21:11;22.50;97.30
66257;DHT22;53049;43.446;3.698;2022-10-16T14:23:39;22.40;97.50
66257;DHT22;53049;43.446;3.698;2022-10-16T14:28:34;22.40;97.70
66257;DHT22;53049;43.446;3.698;2022-10-16T14:31:02;22.30;97.70
66257;DHT22;53049;43.446;3.698;2022-10-16T14:38:32;22.30;97.80
66257;DHT22;53049;43.446;3.698;2022-10-16T14:40:59;22.10;97.90
66257;DHT22;53049;43.446;3.698;2022-10-16T14:43:32;22.10;98.20
66257;DHT22;53049;43.446;3.698;2022-10-16T14:45:59;22.10;98.10
66257;DHT22;53049;43.446;3.698;2022-10-16T14:48:26;22.00;98.30
66257;DHT22;53049;43.446;3.698;2022-10-16T14:50:52;22.10;98.40
66257;DHT22;53049;43.446;3.698;2022-10-16T14:53:18;22.10;98.50
66257;DHT22;53049;43.446;3.698;2022-10-16T14:55:44;22.10;98.50
66257;DHT22;53049;43.446;3.698;2022-10-16T14:58:18;22.00;98.50
66257;DHT22;53049;43.446;3.698;2022-10-16T15:00:45;22.00;98.60
66257;DHT22;53049;43.446;3.698;2022-10-16T15:03:11;22.00;98.70
66257;DHT22;53049;43.446;3.698;2022-10-16T15:05:36;22.00;98.90
66257;DHT22;53049;43.446;3.698;2022-10-16T15:08:02;22.00;99.20
66257;DHT22;53049;43.446;3.698;2022-10-16T15:10:30;21.90;98.90
66257;DHT22;53049;43.446;3.698;2022-10-16T15:12:57;21.90;99.10
66257;DHT22;53049;43.446;3.698;2022-10-16T15:17:49;21.80;99.20
66257;DHT22;53049;43.446;3.698;2022-10-16T15:20:18;21.80;99.40
66257;DHT22;53049;43.446;3.698;2022-10-16T15:22:43;21.70;99.40
66257;DHT22;53049;43.446;3.698;2022-10-16T15:27:59;21.80;99.50
66257;DHT22;53049;43.446;3.698;2022-10-16T15:30:25;21.80;99.50
66257;DHT22;53049;43.446;3.698;2022-10-16T15:32:51;21.70;99.60
66257;DHT22;53049;43.446;3.698;2022-10-16T15:35:17;21.80;99.70
66257;DHT22;53049;43.446;3.698;2022-10-16T15:37:42;21.70;99.60
66257;DHT22;53049;43.446;3.698;2022-10-16T15:40:10;21.70;99.70
66257;DHT22;53049;43.446;3.698;2022-10-16T15:42:35;21.70;99.80
66257;DHT22;53049;43.446;3.698;2022-10-16T15:45:01;21.60;99.90
66257;DHT22;53049;43.446;3.698;2022-10-16T15:47:28;21.60;99.90
66257;DHT22;53049;43.446;3.698;2022-10-16T15:49:54;21.60;99.90
66257;DHT22;53049;43.446;3.698;2022-10-16T15:52:19;21.50;99.90
66257;DHT22;53049;43.446;3.698;2022-10-16T15:54:45;21.60;99.90
66257;DHT22;53049;43.446;3.698;2022-10-16T15:57:12;21.50;99.90
66257;DHT22;53049;43.446;3.698;2022-10-16T15:59:37;21.60;99.90
66257;DHT22;53049;43.446;3.698;2022-10-16T16:02:03;21.50;99.90
66257;DHT22;53049;43.446;3.698;2022-10-16T16:04:32;21.50;99.90
66257;DHT22;53049;43.446;3.698;2022-10-16T16:06:57;21.50;99.90
66257;DHT22;53049;43.446;3.698;2022-10-16T16:09:23;21.60;99.90
66257;DHT22;53049;43.446;3.698;2022-10-16T16:11:49;21.50;99.90
66257;DHT22;53049;43.446;3.698;2022-10-16T16:14:16;21.50;99.90
66257;DHT22;53049;43.446;3.698;2022-10-16T16:16:43;21.50;99.90
66257;DHT22;53049;43.446;3.698;2022-10-16T16:19:09;21.40;99.90
66257;DHT22;53049;43.446;3.698;2022-10-16T16:21:38;21.40;99.90
66257;DHT22;53049;43.446;3.698;2022-10-16T16:24:04;21.40;99.90
66257;DHT22;53049;43.446;3.698;2022-10-16T16:26:37;21.40;99.90
66257;DHT22;53049;43.446;3.698;2022-10-16T16:29:05;21.30;99.90
66257;DHT22;53049;43.446;3.698;2022-10-16T16:31:41;21.30;99.90
66257;DHT22;53049;43.446;3.698;2022-10-16T16:34:07;21.20;99.90
66257;DHT22;53049;43.446;3.698;2022-10-16T16:36:37;21.20;99.90
66257;DHT22;53049;43.446;3.698;2022-10-16T16:39:14;21.20;99.90
66257;DHT22;53049;43.446;3.698;2022-10-16T16:41:40;21.10;99.90
66257;DHT22;53049;43.446;3.698;2022-10-16T16:44:07;21.10;99.90
66257;DHT22;53049;43.446;3.698;2022-10-16T16:46:35;21.10;99.90
66257;DHT22;53049;43.446;3.698;2022-10-16T16:49:03;21.10;99.90
66257;DHT22;53049;43.446;3.698;2022-10-16T16:51:29;21.00;99.90
66257;DHT22;53049;43.446;3.698;2022-10-16T16:53:55;21.10;99.90
66257;DHT22;53049;43.446;3.698;2022-10-16T16:56:26;21.00;99.90
66257;DHT22;53049;43.446;3.698;2022-10-16T17:04:02;21.00;99.90
66257;DHT22;53049;43.446;3.698;2022-10-16T17:06:29;20.90;99.90
66257;DHT22;53049;43.446;3.698;2022-10-16T17:08:55;20.90;99.90
66257;DHT22;53049;43.446;3.698;2022-10-16T17:11:23;20.90;99.90
66257;DHT22;53049;43.446;3.698;2022-10-16T17:13:50;20.90;99.90
66257;DHT22;53049;43.446;3.698;2022-10-16T17:16:42;20.90;99.90
66257;DHT22;53049;43.446;3.698;2022-10-16T17:19:16;20.90;99.90
66257;DHT22;53049;43.446;3.698;2022-10-16T17:21:42;20.90;99.90
66257;DHT22;53049;43.446;3.698;2022-10-16T17:24:08;20.80;99.90
66257;DHT22;53049;43.446;3.698;2022-10-16T17:26:34;20.80;99.90
66257;DHT22;53049;43.446;3.698;2022-10-16T17:29:20;20.80;99.90
66257;DHT22;53049;43.446;3.698;2022-10-16T17:31:54;20.80;99.90
66257;DHT22;53049;43.446;3.698;2022-10-16T17:55:11;20.70;99.90
66257;DHT22;53049;43.446;3.698;2022-10-16T17:57:37;20.80;99.90
66257;DHT22;53049;43.446;3.698;2022-10-16T18:05:20;20.70;99.90
66257;DHT22;53049;43.446;3.698;2022-10-16T18:07:46;20.70;99.90
66257;DHT22;53049;43.446;3.698;2022-10-16T18:10:12;20.70;99.90